createdAt,value
2022-11-17T00:02:41.619Z,2.70
2022-11-17T00:06:44.260Z,2.68
2022-11-17T00:10:45.859Z,2.54
2022-11-17T00:14:47.796Z,2.52
2022-11-17T00:19:07.975Z,2.65
2022-11-17T00:23:09.888Z,2.51
2022-11-17T00:27:12.025Z,2.60
2022-11-17T00:31:33.206Z,2.42
2022-11-17T00:35:34.795Z,2.34
2022-11-17T00:39:36.798Z,2.34
2022-11-17T00:43:38.425Z,2.41
2022-11-17T00:47:40.390Z,2.33
2022-11-17T00:51:42.547Z,2.24
2022-11-17T00:55:44.799Z,2.31
2022-11-17T00:59:46.415Z,2.21
2022-11-17T01:03:48.807Z,2.24
2022-11-17T01:07:52.971Z,2.25
2022-11-17T01:11:54.906Z,2.10
2022-11-17T01:15:56.577Z,2.04
2022-11-17T01:19:58.659Z,2.09
2022-11-17T01:24:02.000Z,2.04
2022-11-17T01:28:04.090Z,1.97
2022-11-17T01:32:05.728Z,1.95
2022-11-17T01:36:12.623Z,2.02
2022-11-17T01:40:14.610Z,1.89
2022-11-17T01:44:41.654Z,1.92
2022-11-17T01:48:44.756Z,1.89
2022-11-17T01:52:49.205Z,1.76
2022-11-17T01:56:55.686Z,1.95
2022-11-17T02:00:58.056Z,1.84
2022-11-17T02:05:05.812Z,1.84
2022-11-17T02:09:08.596Z,1.83
2022-11-17T02:13:10.321Z,1.89
2022-11-17T02:17:14.516Z,1.85
2022-11-17T02:21:41.311Z,1.82
2022-11-17T02:25:53.240Z,1.90
2022-11-17T02:30:07.399Z,1.83
2022-11-17T02:34:12.329Z,1.68
2022-11-17T02:38:31.786Z,1.65
2022-11-17T02:42:58.858Z,1.72
2022-11-17T02:47:20.945Z,1.72
2022-11-17T02:51:24.642Z,1.68
2022-11-17T02:55:27.658Z,1.79
2022-11-17T02:59:36.936Z,1.76
2022-11-17T03:04:04.117Z,1.72
2022-11-17T03:08:20.336Z,1.76
2022-11-17T03:12:24.433Z,1.64
2022-11-17T03:16:41.542Z,1.71
2022-11-17T03:21:10.392Z,1.64
2022-11-17T03:25:17.873Z,1.66
2022-11-17T03:29:23.910Z,1.69
2022-11-17T03:33:28.986Z,1.71
2022-11-17T03:37:33.693Z,1.71
2022-11-17T03:41:41.685Z,1.77
2022-11-17T03:45:51.499Z,1.73
2022-11-17T03:50:03.758Z,1.75
2022-11-17T03:54:06.226Z,1.71
2022-11-17T03:58:15.319Z,1.76
2022-11-17T04:02:19.278Z,1.69
2022-11-17T04:06:21.236Z,1.54
2022-11-17T04:10:25.727Z,1.73
2022-11-17T04:14:46.513Z,1.72
2022-11-17T04:18:48.663Z,1.58
2022-11-17T04:23:07.112Z,1.61
2022-11-17T04:27:27.834Z,1.73
2022-11-17T04:31:31.839Z,1.72
2022-11-17T04:35:33.462Z,1.63
2022-11-17T04:39:38.662Z,1.56
2022-11-17T04:43:40.334Z,1.56
2022-11-17T04:47:42.204Z,1.54
2022-11-17T04:51:44.337Z,1.52
2022-11-17T04:55:46.282Z,1.49
2022-11-17T04:59:47.927Z,1.57
2022-11-17T05:03:53.824Z,1.50
2022-11-17T05:07:55.662Z,1.60
2022-11-17T05:12:16.068Z,1.58
2022-11-17T05:16:37.588Z,1.65
2022-11-17T05:20:39.516Z,1.51
2022-11-17T05:24:41.140Z,1.41
2022-11-17T05:28:43.554Z,1.62
2022-11-17T05:32:45.276Z,1.54
2022-11-17T05:36:47.204Z,1.57
2022-11-17T05:40:48.866Z,1.53
2022-11-17T05:44:51.058Z,1.48
2022-11-17T05:48:53.398Z,1.45
2022-11-17T05:52:55.300Z,1.45
2022-11-17T05:57:03.085Z,1.58
2022-11-17T06:01:06.675Z,1.40
2022-11-17T06:05:09.773Z,1.39
2022-11-17T06:09:12.574Z,1.50
2022-11-17T06:13:14.242Z,1.48
2022-11-17T06:17:25.895Z,1.52
2022-11-17T06:21:43.210Z,1.56
2022-11-17T06:25:49.900Z,1.50
2022-11-17T06:29:52.061Z,1.57
2022-11-17T06:33:54.220Z,1.46
2022-11-17T06:37:55.830Z,1.55
2022-11-17T06:41:57.748Z,1.51
2022-11-17T06:46:05.835Z,1.39
2022-11-17T06:50:08.819Z,1.51
2022-11-17T06:54:12.376Z,1.53
2022-11-17T06:58:15.034Z,1.28
2022-11-17T07:02:16.925Z,1.33
2022-11-17T07:06:19.089Z,1.30
2022-11-17T07:10:20.956Z,1.31
2022-11-17T07:14:22.914Z,1.11
2022-11-17T07:18:24.582Z,1.04
2022-11-17T07:22:26.654Z,1.07
2022-11-17T07:26:28.500Z,1.21
2022-11-17T07:30:30.634Z,1.17
2022-11-17T07:34:32.440Z,1.23
2022-11-17T07:38:35.863Z,1.26
2022-11-17T07:42:37.760Z,1.32
2022-11-17T07:46:40.882Z,1.14
2022-11-17T07:50:42.608Z,1.42
2022-11-17T07:54:44.640Z,1.28
2022-11-17T07:58:46.506Z,1.12
2022-11-17T08:02:48.426Z,1.16
2022-11-17T08:06:50.109Z,1.08
2022-11-17T08:10:52.075Z,1.17
2022-11-17T08:14:53.716Z,1.09
2022-11-17T08:18:55.586Z,1.04
2022-11-17T08:22:57.353Z,0.94
2022-11-17T08:26:59.295Z,1.12
2022-11-17T08:31:02.651Z,1.19
2022-11-17T08:35:06.913Z,1.11
2022-11-17T08:39:08.662Z,1.13
2022-11-17T08:43:10.582Z,1.27
2022-11-17T08:47:12.432Z,1.37
2022-11-17T08:51:15.042Z,1.38
2022-11-17T08:55:16.877Z,1.29
2022-11-17T08:59:18.879Z,1.12
2022-11-17T09:03:20.555Z,1.11
2022-11-17T09:07:22.669Z,1.17
2022-11-17T09:11:24.454Z,1.11
2022-11-17T09:15:26.392Z,1.21
2022-11-17T09:19:28.092Z,1.14
2022-11-17T09:23:31.678Z,1.21
2022-11-17T09:27:33.504Z,1.22
2022-11-17T09:31:36.082Z,1.20
2022-11-17T09:35:37.962Z,1.24
2022-11-17T09:39:39.870Z,1.25
2022-11-17T09:43:52.570Z,1.25
2022-11-17T09:48:40.284Z,1.07
2022-11-17T09:53:04.967Z,1.12
2022-11-17T09:57:18.660Z,1.13
2022-11-17T10:01:22.408Z,1.07
2022-11-17T10:05:34.695Z,1.05
2022-11-17T10:09:41.426Z,1.07
2022-11-17T10:13:43.195Z,1.19
2022-11-17T10:17:45.137Z,1.13
2022-11-17T10:21:51.883Z,1.24
2022-11-17T10:25:58.606Z,1.33
2022-11-17T10:30:14.783Z,1.37
2022-11-17T10:34:41.086Z,1.21
2022-11-17T10:38:45.674Z,1.12
2022-11-17T10:42:57.943Z,1.29
2022-11-17T10:47:04.018Z,1.37
2022-11-17T10:51:19.543Z,1.43
2022-11-17T10:55:34.057Z,1.50
2022-11-17T10:59:59.641Z,1.66
2022-11-17T11:04:03.270Z,1.54
2022-11-17T11:08:25.161Z,1.59
2022-11-17T11:12:53.985Z,1.82
2022-11-17T11:16:56.341Z,1.86
2022-11-17T11:21:04.748Z,1.76
2022-11-17T11:25:21.918Z,1.68
2022-11-17T11:29:39.476Z,1.61
2022-11-17T11:34:10.337Z,1.61
2022-11-17T11:38:24.359Z,1.79
2022-11-17T11:42:58.024Z,1.74
2022-11-17T11:47:11.221Z,1.61
2022-11-17T11:51:19.337Z,1.45
2022-11-17T11:55:24.363Z,1.40
2022-11-17T11:59:43.382Z,1.46
2022-11-17T12:03:49.803Z,1.57
2022-11-17T12:08:17.578Z,1.57
2022-11-17T12:12:26.862Z,1.42
2022-11-17T12:16:33.428Z,1.46
2022-11-17T12:20:38.598Z,1.33
2022-11-17T12:24:41.920Z,1.30
2022-11-17T12:28:43.798Z,1.39
2022-11-17T12:32:48.426Z,1.49
2022-11-17T12:37:15.418Z,1.82
2022-11-17T12:41:48.374Z,2.04
2022-11-17T12:45:53.492Z,2.04
2022-11-17T12:50:08.989Z,1.89
2022-11-17T12:54:22.174Z,1.90
2022-11-17T12:58:48.685Z,2.01
2022-11-17T13:03:10.351Z,1.98
2022-11-17T13:07:23.649Z,1.91
2022-11-17T13:11:26.753Z,1.79
2022-11-17T13:15:28.453Z,1.45
2022-11-17T13:19:34.181Z,1.33
2022-11-17T13:23:44.272Z,1.34
2022-11-17T13:27:51.138Z,1.33
2022-11-17T13:32:28.401Z,1.20
2022-11-17T13:36:30.528Z,0.87
2022-11-17T13:40:35.470Z,0.79
2022-11-17T13:44:37.527Z,0.57
2022-11-17T13:48:44.567Z,0.55
2022-11-17T13:52:47.396Z,0.59
2022-11-17T13:56:49.151Z,0.51
2022-11-17T14:00:53.357Z,0.43
2022-11-17T14:05:14.474Z,0.34
2022-11-17T14:09:18.554Z,0.28
2022-11-17T14:13:23.854Z,0.17
2022-11-17T14:17:25.895Z,0.06
2022-11-17T14:21:28.753Z,-0.15
2022-11-17T14:25:33.964Z,-0.22
2022-11-17T14:29:35.625Z,-0.22
2022-11-17T14:33:37.552Z,-0.30
2022-11-17T14:37:39.249Z,-0.38
2022-11-17T14:41:42.348Z,-0.56
2022-11-17T14:45:44.750Z,-0.61
2022-11-17T14:49:46.785Z,-0.80
2022-11-17T14:53:48.873Z,-1.00
2022-11-17T14:57:50.912Z,-1.09
2022-11-17T15:01:53.990Z,-1.25
2022-11-17T15:05:55.910Z,-1.29
2022-11-17T15:09:57.728Z,-1.40
2022-11-17T15:14:04.588Z,-1.59
2022-11-17T15:18:06.562Z,-1.88
2022-11-17T15:22:08.487Z,-1.72
2022-11-17T15:26:16.577Z,-1.79
2022-11-17T15:30:18.694Z,-1.86
2022-11-17T15:34:20.825Z,-2.05
2022-11-17T15:38:22.814Z,-2.11
2022-11-17T15:42:24.464Z,-2.18
2022-11-17T15:46:26.330Z,-2.07
2022-11-17T15:50:28.371Z,-2.01
2022-11-17T15:54:30.320Z,-1.95
2022-11-17T15:58:32.474Z,-1.82
2022-11-17T16:02:34.368Z,-1.77
2022-11-17T16:06:39.529Z,-1.78
2022-11-17T16:10:41.473Z,-1.75
2022-11-17T16:14:43.341Z,-1.79
2022-11-17T16:18:45.213Z,-1.82
2022-11-17T16:22:47.971Z,-1.83
2022-11-17T16:26:49.909Z,-1.72
2022-11-17T16:30:51.675Z,-1.64
2022-11-17T16:34:53.600Z,-1.64
2022-11-17T16:39:01.792Z,-1.62
2022-11-17T16:43:04.128Z,-1.50
2022-11-17T16:47:05.878Z,-1.54
2022-11-17T16:51:08.625Z,-1.49
2022-11-17T16:55:10.273Z,-1.53
2022-11-17T16:59:12.404Z,-1.48
2022-11-17T17:03:16.829Z,-1.54
2022-11-17T17:07:18.855Z,-1.49
2022-11-17T17:11:20.772Z,-1.35
2022-11-17T17:15:22.695Z,-1.20
2022-11-17T17:19:24.484Z,-1.14
2022-11-17T17:23:27.121Z,-0.99
2022-11-17T17:27:30.381Z,-1.01
2022-11-17T17:31:35.197Z,-0.92
2022-11-17T17:35:36.880Z,-0.91
2022-11-17T17:39:38.790Z,-0.91
2022-11-17T17:43:41.959Z,-0.87
2022-11-17T17:47:43.899Z,-0.84
2022-11-17T17:51:45.869Z,-0.89
2022-11-17T17:55:47.761Z,-0.88
2022-11-17T17:59:49.457Z,-0.97
2022-11-17T18:04:01.053Z,-0.81
2022-11-17T18:08:04.768Z,-0.88
2022-11-17T18:12:06.694Z,-0.89
2022-11-17T18:16:11.347Z,-0.92
2022-11-17T18:20:13.405Z,-0.93
2022-11-17T18:24:15.165Z,-0.85
2022-11-17T18:28:17.062Z,-0.90
2022-11-17T18:32:18.693Z,-0.74
2022-11-17T18:36:21.526Z,-0.74
2022-11-17T18:40:23.320Z,-0.81
2022-11-17T18:44:25.180Z,-0.79
2022-11-17T18:48:26.961Z,-0.86
2022-11-17T18:52:31.554Z,-1.01
2022-11-17T18:56:35.540Z,-0.97
2022-11-17T19:00:37.443Z,-0.93
2022-11-17T19:04:39.181Z,-0.99
2022-11-17T19:08:41.377Z,-0.83
2022-11-17T19:12:42.985Z,-0.98
2022-11-17T19:16:45.384Z,-0.80
2022-11-17T19:20:47.164Z,-0.78
2022-11-17T19:24:49.059Z,-0.68
2022-11-17T19:28:55.635Z,-0.73
2022-11-17T19:32:57.973Z,-0.76
2022-11-17T19:36:59.630Z,-0.78
2022-11-17T19:41:03.394Z,-0.78
2022-11-17T19:45:05.274Z,-0.86
2022-11-17T19:49:08.030Z,-0.90
2022-11-17T19:53:09.849Z,-0.69
2022-11-17T19:57:11.730Z,-0.67
2022-11-17T20:01:15.797Z,-0.62
2022-11-17T20:05:17.797Z,-0.62
2022-11-17T20:09:19.661Z,-0.48
2022-11-17T20:13:21.630Z,-0.57
2022-11-17T20:17:23.547Z,-0.53
2022-11-17T20:21:27.390Z,-0.55
2022-11-17T20:25:30.630Z,-0.51
2022-11-17T20:29:32.577Z,-0.49
2022-11-17T20:33:34.488Z,-0.47
2022-11-17T20:37:36.378Z,-0.58
2022-11-17T20:41:38.286Z,-0.50
2022-11-17T20:45:40.193Z,-0.52
2022-11-17T20:49:41.854Z,-0.59
2022-11-17T20:53:44.561Z,-0.93
2022-11-17T20:57:46.245Z,-0.93
2022-11-17T21:01:49.366Z,-0.93
2022-11-17T21:05:59.606Z,-0.86
2022-11-17T21:10:01.672Z,-1.18
2022-11-17T21:14:05.535Z,-1.16
2022-11-17T21:18:25.376Z,-1.25
2022-11-17T21:22:27.293Z,-1.33
2022-11-17T21:26:29.200Z,-1.36
2022-11-17T21:30:32.498Z,-1.37
2022-11-17T21:34:34.262Z,-1.47
2022-11-17T21:38:36.904Z,-1.47
2022-11-17T21:42:38.590Z,-1.35
2022-11-17T21:46:40.698Z,-1.36
2022-11-17T21:50:45.969Z,-1.32
2022-11-17T21:54:48.010Z,-1.38
2022-11-17T21:58:53.535Z,-1.27
2022-11-17T22:02:55.574Z,-1.35
2022-11-17T22:06:57.348Z,-1.28
2022-11-17T22:11:03.780Z,-1.19
2022-11-17T22:15:11.328Z,-1.09
2022-11-17T22:19:16.111Z,-1.05
2022-11-17T22:23:18.552Z,-1.10
2022-11-17T22:27:22.190Z,-1.05
2022-11-17T22:31:24.075Z,-1.06
2022-11-17T22:35:25.964Z,-1.04
2022-11-17T22:39:27.540Z,-1.10
2022-11-17T22:43:29.928Z,-1.22
2022-11-17T22:47:31.507Z,-1.21
2022-11-17T22:51:51.988Z,-1.19
2022-11-17T22:55:54.129Z,-1.15
2022-11-17T22:59:56.046Z,-1.02
2022-11-17T23:03:57.967Z,-1.10
2022-11-17T23:08:00.893Z,-1.03
2022-11-17T23:12:05.327Z,-0.97
2022-11-17T23:16:07.965Z,-0.95
2022-11-17T23:20:10.295Z,-0.92
2022-11-17T23:24:14.509Z,-1.00
2022-11-17T23:28:16.146Z,-0.97
2022-11-17T23:32:18.276Z,-1.04
2022-11-17T23:36:21.865Z,-1.00
2022-11-17T23:40:24.294Z,-0.94
2022-11-17T23:44:25.903Z,-0.86
2022-11-17T23:48:27.811Z,-0.83
2022-11-17T23:52:29.419Z,-1.06
2022-11-17T23:56:33.594Z,-1.01
